Terminal Aerodrome Forecast
Issued by NWS

Home | Current Version | Previous Version | Text Only | Print | Product List | Glossary On
Versions: 1 2 3 4 5 6 7 8 9 10 11 12 13 14 15
000
FTUS46 KSTO 231100
TAFSCK
TAF
KSCK 231127Z 2312/2412 VRB05KT P6SM BKN250
     FM231900 29008KT P6SM OVC200
     FM232200 VRB05KT P6SM BKN200=

USA.gov is the U.S. government's official web portal to all federal, state and local government web resources and services.